Time;durP1;ratioP1;P1;durP2;ratioP2;P2;SDS_P1;SDS_P2;PMS_P1;PMS_P2;Temp;Humidity;BMP_temperature;BMP_pressure;BME280_temperature;BME280_humidity;BME280_pressure;Samples;Min_cycle;Max_cycle;Signal;HPM_P1;HPM_P2
2022/01/15 00:00:39;;;;;;;;;45.33;36.33;;;;;4.76;97.64;102923.59;5035419;28;45466;-67
2022/01/15 00:03:08;;;;;;;;;39.00;29.00;;;;;4.77;97.34;102919.31;5035775;28;45246;-67
2022/01/15 00:05:34;;;;;;;;;56.00;35.67;;;;;4.67;97.50;102911.13;5017469;28;45368;-67
2022/01/15 00:08:02;;;;;;;;;46.00;31.67;;;;;4.64;96.41;102915.34;5035629;28;45313;-67
2022/01/15 00:10:29;;;;;;;;;43.33;33.67;;;;;4.67;97.41;102923.28;5036039;28;45279;-67
2022/01/15 00:12:59;;;;;;;;;35.33;29.00;;;;;4.66;98.20;102918.88;5035200;28;46496;-67
2022/01/15 00:15:32;;;;;;;;;53.33;37.00;;;;;4.51;98.00;102899.22;5034523;27;45422;-67
2022/01/15 00:18:01;;;;;;;;;53.00;37.00;;;;;4.33;98.64;102869.88;5035977;27;45516;-67
2022/01/15 00:20:28;;;;;;;;;44.00;32.33;;;;;4.61;98.20;102904.81;5035852;27;45205;-67
2022/01/15 00:22:55;;;;;;;;;44.67;35.33;;;;;4.61;98.33;102900.47;5035719;28;46264;-67
2022/01/15 00:25:23;;;;;;;;;50.67;33.00;;;;;4.52;98.05;102887.09;5035483;28;45262;-67
2022/01/15 00:27:49;;;;;;;;;40.00;30.67;;;;;4.60;98.50;102896.06;5035551;28;45278;-67
2022/01/15 00:30:16;;;;;;;;;47.67;29.67;;;;;4.63;98.53;102888.38;5036053;28;45478;-67
2022/01/15 00:32:42;;;;;;;;;39.00;29.67;;;;;4.52;98.03;102867.09;5034970;28;45487;-67
2022/01/15 00:35:10;;;;;;;;;42.00;33.67;;;;;4.59;97.60;102885.56;5035408;28;45281;-67
2022/01/15 00:37:36;;;;;;;;;42.67;37.00;;;;;4.52;97.68;102879.25;5035352;27;45449;-67
2022/01/15 00:40:04;;;;;;;;;44.00;33.67;;;;;4.56;97.60;102877.63;5035509;28;45541;-67
2022/01/15 00:42:31;;;;;;;;;49.00;31.67;;;;;4.53;97.20;102863.66;5035259;28;46437;-67
2022/01/15 00:44:58;;;;;;;;;50.67;35.67;;;;;4.42;97.97;102851.06;5034901;28;45218;-67
2022/01/15 00:47:25;;;;;;;;;48.00;36.33;;;;;4.47;98.79;102855.63;5035517;27;45282;-67
2022/01/15 00:49:52;;;;;;;;;45.33;34.67;;;;;4.39;98.83;102841.41;5035486;28;45480;-67
2022/01/15 00:52:17;;;;;;;;;47.00;34.00;;;;;4.38;99.14;102831.78;5034860;28;46278;-67
2022/01/15 00:54:43;;;;;;;;;41.67;34.67;;;;;4.42;98.83;102843.25;5050504;27;45322;-67
2022/01/15 00:57:08;;;;;;;;;46.67;36.33;;;;;4.48;98.95;102848.69;5017312;28;45522;-67
2022/01/15 00:59:34;;;;;;;;;56.33;39.33;;;;;4.47;99.60;102836.47;5035327;28;45397;-67
2022/01/15 01:01:59;;;;;;;;;39.33;28.67;;;;;4.56;98.66;102844.63;5035080;28;45422;-67
2022/01/15 01:04:24;;;;;;;;;45.00;35.67;;;;;4.49;98.25;102834.81;5035140;28;45409;-67
2022/01/15 01:06:50;;;;;;;;;47.33;37.00;;;;;4.44;98.49;102825.91;5035423;27;45221;-67
2022/01/15 01:09:15;;;;;;;;;42.33;31.00;;;;;4.41;98.26;102828.41;5035093;27;45573;-67
2022/01/15 01:11:48;;;;;;;;;43.33;36.33;;;;;4.48;99.08;102846.06;5035003;28;46358;-67
2022/01/15 01:24:59;;;;;;;;;52.00;37.00;;;;;4.46;99.99;102813.81;5034906;28;45446;-67
2022/01/15 01:27:30;;;;;;;;;55.67;37.00;;;;;4.49;99.49;102812.22;5034901;27;45283;-67
2022/01/15 01:35:05;;;;;;;;;50.00;38.33;;;;;4.49;99.83;102819.16;5034717;27;45228;-67
2022/01/15 01:37:36;;;;;;;;;53.67;36.67;;;;;4.40;100.00;102804.06;5035062;27;45269;-67
2022/01/15 01:40:17;;;;;;;;;55.67;40.00;;;;;4.38;100.00;102792.66;5034900;27;45434;-67
2022/01/15 01:42:52;;;;;;;;;47.67;35.00;;;;;4.49;99.36;102807.00;5034485;28;45275;-67
2022/01/15 01:45:18;;;;;;;;;47.00;36.33;;;;;4.47;99.31;102798.25;5034422;27;45310;-67
2022/01/15 01:47:43;;;;;;;;;42.00;33.33;;;;;4.40;99.10;102785.81;5034774;27;45421;-67
2022/01/15 01:50:24;;;;;;;;;56.33;43.67;;;;;4.54;100.00;102804.53;5033664;27;45410;-67
2022/01/15 01:52:52;;;;;;;;;60.33;46.33;;;;;4.59;100.00;102803.00;5034442;28;45586;-67
2022/01/15 01:55:19;;;;;;;;;49.00;38.67;;;;;4.52;98.70;102790.56;5034233;28;45226;-67
2022/01/15 01:57:46;;;;;;;;;57.67;42.00;;;;;4.50;98.71;102798.34;5034435;27;45208;-67
2022/01/15 02:00:14;;;;;;;;;55.33;39.00;;;;;4.56;99.06;102796.75;5034573;28;45384;-67
2022/01/15 02:02:40;;;;;;;;;46.00;37.00;;;;;4.62;97.86;102802.19;5034363;28;46380;-67
2022/01/15 02:05:06;;;;;;;;;52.33;30.67;;;;;4.53;98.59;102788.00;5034039;28;45416;-68
2022/01/15 02:07:32;;;;;;;;;55.33;40.00;;;;;4.46;99.39;102783.41;5034405;28;45739;-67
2022/01/15 02:09:58;;;;;;;;;54.00;42.33;;;;;4.44;99.42;102781.56;5034413;28;45492;-67
2022/01/15 02:12:24;;;;;;;;;48.33;39.67;;;;;4.44;98.88;102772.00;5034035;27;46006;-67
2022/01/15 02:14:50;;;;;;;;;48.00;38.00;;;;;4.36;99.24;102768.28;5033517;28;45410;-67
2022/01/15 02:17:19;;;;;;;;;48.00;35.67;;;;;4.47;98.67;102779.97;5034340;28;45396;-67
2022/01/15 02:20:08;;;;;;;;;59.33;41.00;;;;;4.50;99.02;102784.41;5032920;28;45400;-67
2022/01/15 02:25:14;;;;;;;;;46.00;36.00;;;;;4.36;99.19;102763.06;5033929;28;45454;-67
2022/01/15 02:27:40;;;;;;;;;52.67;39.33;;;;;4.38;100.00;102760.50;5034122;28;45689;-67
2022/01/15 02:30:06;;;;;;;;;48.00;41.00;;;;;4.42;98.69;102765.00;5034223;28;45329;-67
2022/01/15 02:32:32;;;;;;;;;45.67;38.67;;;;;4.42;98.49;102754.56;5033730;28;45232;-67
2022/01/15 02:34:59;;;;;;;;;39.00;34.67;;;;;4.43;98.47;102757.22;5033644;28;45406;-67
2022/01/15 02:37:25;;;;;;;;;39.67;36.67;;;;;4.38;99.01;102750.94;5016374;27;45439;-67
2022/01/15 02:39:50;;;;;;;;;49.33;38.00;;;;;4.41;98.90;102753.66;5033907;28;45465;-67
2022/01/15 02:42:15;;;;;;;;;51.33;36.67;;;;;4.38;99.31;102744.84;5033734;28;46466;-67
2022/01/15 02:44:43;;;;;;;;;51.67;39.00;;;;;4.28;99.56;102722.78;5033734;28;45479;-67
2022/01/15 02:49:34;;;;;;;;;58.67;44.33;;;;;4.38;99.40;102727.47;5033792;27;45359;-67
2022/01/15 02:51:59;;;;;;;;;46.00;36.67;;;;;4.40;98.32;102733.66;5033672;28;45395;-67
2022/01/15 02:54:25;;;;;;;;;52.33;39.33;;;;;4.19;97.88;102715.50;5033624;28;45424;-67
2022/01/15 02:56:52;;;;;;;;;48.67;37.00;;;;;4.33;97.98;102729.06;5033772;28;45249;-67
2022/01/15 02:59:22;;;;;;;;;44.00;37.00;;;;;4.33;98.01;102734.25;5033677;27;45474;-67
2022/01/15 03:01:49;;;;;;;;;58.33;42.33;;;;;4.28;98.42;102722.78;5033184;27;47039;-67
2022/01/15 03:04:16;;;;;;;;;60.67;45.00;;;;;4.36;98.33;102730.03;5033182;27;45322;-67
2022/01/15 03:06:41;;;;;;;;;60.67;44.67;;;;;4.28;99.23;102725.38;5033597;27;45231;-67
2022/01/15 03:09:07;;;;;;;;;59.67;43.00;;;;;4.27;99.05;102729.72;5033581;28;45217;-67
2022/01/15 03:11:32;;;;;;;;;55.00;43.67;;;;;4.29;98.24;102721.94;5033039;28;46322;-68
2022/01/15 03:13:57;;;;;;;;;62.33;43.00;;;;;4.29;98.89;102717.59;5033094;27;45418;-67
2022/01/15 03:16:23;;;;;;;;;46.67;37.00;;;;;4.30;98.08;102715.91;5033402;27;45644;-67
2022/01/15 03:18:49;;;;;;;;;62.00;44.00;;;;;4.15;98.82;102696.28;5033627;28;45235;-67
2022/01/15 03:21:14;;;;;;;;;48.67;41.00;;;;;4.28;98.91;102714.94;5033180;28;46659;-68
2022/01/15 03:23:40;;;;;;;;;56.33;43.67;;;;;4.21;98.56;102702.53;5032863;28;45233;-67
2022/01/15 03:26:08;;;;;;;;;62.67;45.67;;;;;4.13;99.12;102697.06;5035000;28;45334;-67
2022/01/15 03:28:34;;;;;;;;;58.67;43.67;;;;;4.17;100.00;102710.25;5036533;27;45450;-67
2022/01/15 03:31:00;;;;;;;;;60.67;43.67;;;;;4.23;99.16;102713.91;5035872;28;46262;-67
2022/01/15 03:33:25;;;;;;;;;66.00;48.00;;;;;4.14;98.08;102699.72;5036259;28;45432;-67
2022/01/15 03:35:51;;;;;;;;;63.00;47.33;;;;;4.11;98.43;102698.69;5036249;28;45288;-67
2022/01/15 03:38:16;;;;;;;;;62.00;43.67;;;;;4.07;98.11;102686.41;5036493;28;45410;-67
2022/01/15 03:40:42;;;;;;;;;61.00;44.33;;;;;4.08;99.02;102688.16;5036280;28;45637;-67
2022/01/15 03:43:07;;;;;;;;;46.33;39.00;;;;;4.09;98.44;102685.63;5036137;28;45376;-67
2022/01/15 03:45:33;;;;;;;;;56.33;44.00;;;;;4.08;99.79;102685.56;5036145;28;45227;-67
2022/01/15 03:47:59;;;;;;;;;61.00;43.00;;;;;4.05;99.52;102675.91;5036094;28;45319;-67
2022/01/15 03:50:26;;;;;;;;;65.00;44.67;;;;;4.00;100.00;102664.44;5035867;27;46026;-67
2022/01/15 03:52:53;;;;;;;;;63.33;47.00;;;;;4.00;99.56;102639.25;5036023;28;45299;-68
2022/01/15 03:55:19;;;;;;;;;64.33;44.67;;;;;4.08;99.15;102659.50;5036126;28;45340;-67
2022/01/15 03:57:44;;;;;;;;;61.67;47.33;;;;;4.05;98.91;102652.44;5036083;28;45374;-67
2022/01/15 04:00:14;;;;;;;;;57.00;43.33;;;;;4.09;99.76;102663.88;5035445;27;46582;-67
2022/01/15 04:02:41;;;;;;;;;66.00;50.00;;;;;4.06;99.59;102656.84;5035948;27;45254;-68
2022/01/15 04:05:08;;;;;;;;;64.00;47.67;;;;;4.08;99.54;102660.41;5036089;28;45402;-67
2022/01/15 04:07:33;;;;;;;;;75.67;45.67;;;;;4.01;98.83;102653.19;5036071;28;45454;-67
2022/01/15 04:09:58;;;;;;;;;51.33;40.00;;;;;4.07;99.09;102660.34;5035507;27;46432;-67
2022/01/15 04:12:24;;;;;;;;;63.00;46.67;;;;;4.02;98.86;102652.34;5035722;28;45393;-67
2022/01/15 04:14:49;;;;;;;;;58.00;42.00;;;;;4.00;98.34;102654.91;5035765;28;45250;-67
2022/01/15 04:17:14;;;;;;;;;55.50;42.50;;;;;4.01;98.97;102653.19;5036159;28;45449;-67
2022/01/15 04:19:40;;;;;;;;;63.00;47.00;;;;;3.94;99.33;102646.00;5035523;28;45435;-67
2022/01/15 04:22:06;;;;;;;;;61.00;42.67;;;;;4.08;99.30;102659.50;5035605;27;45431;-67
2022/01/15 04:24:32;;;;;;;;;61.67;45.00;;;;;4.08;99.04;102652.59;5035880;28;45388;-67
2022/01/15 04:26:57;;;;;;;;;49.00;40.33;;;;;4.06;98.54;102637.72;5035860;28;45251;-67
2022/01/15 04:29:22;;;;;;;;;52.33;38.00;;;;;4.01;97.56;102640.16;5035420;28;45675;-67
2022/01/15 04:31:48;;;;;;;;;62.00;45.00;;;;;4.01;97.47;102641.03;5035435;28;45380;-67
2022/01/15 04:34:20;;;;;;;;;42.00;36.00;;;;;4.03;97.33;102643.69;5035297;28;45446;-67
2022/01/15 04:36:47;;;;;;;;;44.67;35.67;;;;;3.94;97.19;102630.34;5017338;28;45593;-67
2022/01/15 04:39:14;;;;;;;;;55.00;40.00;;;;;3.94;97.43;102643.38;5035477;27;46330;-67
2022/01/15 04:41:39;;;;;;;;;54.67;40.00;;;;;3.94;98.20;102638.19;5035179;28;45413;-67
2022/01/15 04:44:06;;;;;;;;;55.33;40.00;;;;;3.93;98.09;102639.00;5035660;27;45195;-67
2022/01/15 04:46:33;;;;;;;;;52.67;40.33;;;;;3.86;98.67;102622.25;5035385;27;45485;-67
2022/01/15 04:48:58;;;;;;;;;45.67;40.33;;;;;3.89;98.95;102627.56;5035095;27;46136;-67
2022/01/15 04:51:23;;;;;;;;;52.00;39.00;;;;;3.97;99.10;102620.91;5035224;28;45395;-67
2022/01/15 04:53:49;;;;;;;;;56.33;42.33;;;;;3.60;98.56;102557.09;5035409;28;45826;-67
2022/01/15 04:56:14;;;;;;;;;50.33;37.00;;;;;3.88;98.74;102612.78;5035558;28;45482;-67
2022/01/15 04:58:40;;;;;;;;;51.33;41.33;;;;;3.92;98.63;102604.25;5035190;27;46626;-68
2022/01/15 05:01:05;;;;;;;;;50.33;37.00;;;;;3.98;98.93;102612.28;5035309;28;45401;-68
2022/01/15 05:03:32;;;;;;;;;44.33;39.67;;;;;3.95;98.27;102599.13;5035306;28;45783;-68
2022/01/15 05:05:57;;;;;;;;;62.00;42.67;;;;;3.98;98.41;102612.28;5035586;27;45445;-68
2022/01/15 05:08:23;;;;;;;;;55.00;37.33;;;;;3.95;98.46;102611.25;5034900;28;45486;-68
2022/01/15 05:10:48;;;;;;;;;45.00;38.00;;;;;3.88;98.89;102604.06;5034925;28;45449;-68
2022/01/15 05:13:15;;;;;;;;;54.67;38.67;;;;;3.98;99.16;102614.00;5035210;28;45237;-68
2022/01/15 05:15:44;;;;;;;;;56.00;40.67;;;;;4.00;98.99;102614.94;5035135;28;45474;-68
2022/01/15 05:18:10;;;;;;;;;45.33;40.00;;;;;3.94;99.85;102597.34;5034918;27;45382;-68
2022/01/15 05:20:36;;;;;;;;;47.67;38.33;;;;;4.00;98.61;102599.28;5035000;28;45342;-67
2022/01/15 05:23:02;;;;;;;;;54.33;39.00;;;;;3.96;98.56;102594.78;5034997;27;45283;-67
2022/01/15 05:25:27;;;;;;;;;46.00;37.33;;;;;4.03;98.04;102594.19;5035338;28;45490;-67
2022/01/15 05:27:53;;;;;;;;;50.00;40.00;;;;;4.04;98.28;102589.84;5034757;28;45955;-68
2022/01/15 05:30:19;;;;;;;;;44.00;36.67;;;;;3.96;97.63;102577.44;5034592;28;45292;-67
2022/01/15 05:32:44;;;;;;;;;55.33;42.00;;;;;3.89;97.34;102578.06;5035082;28;45291;-67
2022/01/15 05:35:10;;;;;;;;;43.67;38.33;;;;;3.92;96.62;102592.91;5034912;27;45308;-68
2022/01/15 05:37:36;;;;;;;;;49.33;40.00;;;;;3.81;96.75;102575.19;5034851;27;46179;-67
2022/01/15 05:40:02;;;;;;;;;45.00;37.00;;;;;3.90;97.41;102585.03;5034621;27;45514;-67
2022/01/15 05:42:28;;;;;;;;;45.67;38.33;;;;;3.80;96.70;102577.75;5034794;28;45367;-67
2022/01/15 05:44:53;;;;;;;;;45.00;34.67;;;;;3.80;96.53;102572.53;5035044;27;45443;-67
2022/01/15 05:47:18;;;;;;;;;52.67;37.33;;;;;3.73;96.87;102561.03;5034232;28;45446;-67
2022/01/15 05:49:44;;;;;;;;;46.33;38.00;;;;;3.73;96.88;102561.03;5033709;27;45386;-67
2022/01/15 05:52:09;;;;;;;;;54.00;39.67;;;;;3.72;96.47;102567.06;5034425;28;45446;-67
2022/01/15 05:54:35;;;;;;;;;57.00;39.00;;;;;3.64;97.09;102564.16;5034881;27;45438;-67
2022/01/15 05:57:00;;;;;;;;;48.33;38.67;;;;;3.74;96.62;102573.19;5034665;28;46452;-67
2022/01/15 05:59:26;;;;;;;;;45.67;37.00;;;;;3.62;96.44;102554.56;5034268;28;45460;-67
2022/01/15 06:01:51;;;;;;;;;39.67;32.33;;;;;3.65;96.19;102571.16;5034505;28;45262;-67
2022/01/15 06:04:16;;;;;;;;;49.33;37.33;;;;;3.57;96.29;102553.50;5034742;28;45299;-67
2022/01/15 06:06:42;;;;;;;;;45.00;36.33;;;;;3.59;96.00;102567.47;5034402;27;46382;-67
2022/01/15 06:09:07;;;;;;;;;47.67;36.67;;;;;3.58;95.80;102574.38;5034496;28;45337;-67
2022/01/15 06:11:34;;;;;;;;;35.00;30.33;;;;;3.51;95.68;102561.97;5034317;28;45204;-67
2022/01/15 06:14:00;;;;;;;;;39.67;35.00;;;;;3.56;96.08;102575.16;5034454;27;45313;-67
2022/01/15 06:16:25;;;;;;;;;39.67;28.33;;;;;3.47;96.24;102563.59;5029152;28;46458;-67
2022/01/15 06:18:51;;;;;;;;;31.00;25.33;;;;;3.46;95.12;102566.16;5021551;28;45337;-67
2022/01/15 06:21:16;;;;;;;;;47.67;35.00;;;;;3.44;95.31;102565.19;5017942;28;45524;-67
2022/01/15 06:23:42;;;;;;;;;47.00;36.00;;;;;3.27;95.17;102548.97;5014486;28;45521;-67
2022/01/15 06:26:08;;;;;;;;;37.67;32.67;;;;;3.12;95.36;102525.84;5014285;28;45681;-67
2022/01/15 06:28:33;;;;;;;;;21.67;14.67;;;;;3.36;95.01;102572.72;5013892;28;45349;-67
2022/01/15 06:30:59;;;;;;;;;35.00;30.33;;;;;3.34;95.52;102571.78;5013920;28;45356;-67
2022/01/15 06:33:25;;;;;;;;;48.33;38.00;;;;;3.19;95.00;102543.47;5014523;28;45254;-67
2022/01/15 06:35:50;;;;;;;;;49.00;38.00;;;;;3.25;95.08;102564.53;5013860;28;46714;-67
2022/01/15 06:38:15;;;;;;;;;38.33;28.33;;;;;3.16;95.09;102553.75;5014018;28;45277;-67
2022/01/15 06:40:41;;;;;;;;;36.00;32.00;;;;;3.21;95.50;102560.03;5014187;28;45278;-67
2022/01/15 06:43:06;;;;;;;;;39.00;34.67;;;;;3.12;94.80;102557.06;5014051;28;45592;-67
2022/01/15 06:45:33;;;;;;;;;39.00;30.67;;;;;3.11;94.75;102551.00;5013770;28;46045;-67
2022/01/15 06:47:59;;;;;;;;;43.00;34.00;;;;;3.09;95.30;102550.06;5013554;28;45201;-67
2022/01/15 06:50:27;;;;;;;;;41.33;33.33;;;;;3.15;95.02;102557.19;5013981;28;45380;-67
2022/01/15 06:52:53;;;;;;;;;43.00;36.67;;;;;3.08;95.04;102561.31;5014080;28;45443;-67
2022/01/15 06:55:18;;;;;;;;;36.00;27.33;;;;;3.13;95.53;102562.34;5013522;28;45953;-67
2022/01/15 06:57:44;;;;;;;;;54.33;38.00;;;;;3.04;96.24;102553.31;5013658;28;45273;-67
2022/01/15 07:00:11;;;;;;;;;45.00;35.67;;;;;3.06;96.44;102565.53;5015095;28;45441;-67
2022/01/15 07:02:37;;;;;;;;;44.33;34.33;;;;;3.10;97.10;102572.63;5016803;28;45292;-67
2022/01/15 07:05:03;;;;;;;;;38.67;33.00;;;;;3.03;94.92;102556.75;5016552;28;45267;-67
2022/01/15 07:07:32;;;;;;;;;42.33;36.33;;;;;3.07;95.36;102564.72;5016547;28;45434;-67
2022/01/15 07:09:57;;;;;;;;;44.00;35.67;;;;;3.07;94.52;102563.84;5083247;27;45387;-67
2022/01/15 07:12:23;;;;;;;;;36.67;31.67;;;;;3.03;95.07;102561.94;5016676;28;45357;-67
2022/01/15 07:14:48;;;;;;;;;40.00;30.33;;;;;2.96;94.97;102551.31;5016472;28;45461;-67
2022/01/15 07:17:14;;;;;;;;;42.33;34.00;;;;;2.93;93.47;102539.91;5016259;28;45376;-67
2022/01/15 07:19:40;;;;;;;;;42.00;36.33;;;;;2.96;94.62;102546.13;5016391;28;45386;-67
2022/01/15 07:22:06;;;;;;;;;44.00;32.00;;;;;2.90;94.32;102539.78;5016847;28;45450;-67
2022/01/15 07:24:31;;;;;;;;;39.00;35.00;;;;;2.93;94.93;102550.31;5015834;27;45418;-67
2022/01/15 07:26:57;;;;;;;;;46.67;32.00;;;;;2.91;94.68;102538.97;5015383;28;45356;-67
2022/01/15 07:29:24;;;;;;;;;29.00;28.67;;;;;2.58;94.72;102498.69;5016622;28;45396;-67
2022/01/15 07:31:51;;;;;;;;;46.33;37.33;;;;;2.84;95.17;102540.44;5016312;28;45449;-67
2022/01/15 07:34:17;;;;;;;;;52.67;41.67;;;;;2.83;95.42;102533.44;5016072;28;46576;-67
2022/01/15 07:36:43;;;;;;;;;45.50;34.50;;;;;2.87;95.22;102530.13;5016299;28;45355;-67
2022/01/15 07:39:09;;;;;;;;;36.33;28.67;;;;;2.97;94.52;102549.59;5016275;28;45379;-67
2022/01/15 07:41:35;;;;;;;;;38.67;34.33;;;;;2.80;93.41;102517.72;5016606;28;45307;-67
2022/01/15 07:44:00;;;;;;;;;44.00;35.67;;;;;2.92;94.75;102541.63;5016099;28;46157;-67
2022/01/15 07:46:26;;;;;;;;;45.00;35.00;;;;;2.89;93.91;102545.81;5015872;28;45344;-67
2022/01/15 07:48:52;;;;;;;;;37.00;29.00;;;;;2.89;94.99;102538.00;5016058;28;45443;-67
2022/01/15 07:51:17;;;;;;;;;33.33;32.00;;;;;2.84;95.30;102526.56;5016361;28;45473;-67
2022/01/15 07:53:43;;;;;;;;;41.33;34.00;;;;;2.91;95.02;102536.34;5016012;28;46512;-67
2022/01/15 07:56:08;;;;;;;;;44.00;36.33;;;;;3.03;97.10;102547.22;5015919;28;45438;-67
2022/01/15 07:58:34;;;;;;;;;35.67;29.67;;;;;2.83;95.34;102493.56;5016150;28;45378;-67
2022/01/15 08:01:00;;;;;;;;;40.67;29.00;;;;;2.99;95.59;102532.31;5015806;28;45372;-68
2022/01/15 08:03:25;;;;;;;;;41.00;36.00;;;;;3.16;94.70;102560.69;5015866;28;45678;-68
2022/01/15 08:05:51;;;;;;;;;46.67;37.67;;;;;3.13;95.22;102553.66;5015985;28;45348;-68
2022/01/15 08:08:16;;;;;;;;;56.67;41.00;;;;;3.09;94.66;102539.66;4998031;28;45823;-68
2022/01/15 08:10:42;;;;;;;;;47.00;38.00;;;;;3.14;95.55;102545.91;4997763;28;45403;-68
2022/01/15 08:13:08;;;;;;;;;36.67;32.33;;;;;3.23;94.41;102560.09;4997681;28;46519;-68
2022/01/15 08:15:34;;;;;;;;;33.33;29.33;;;;;3.16;92.84;102556.38;5015534;28;45405;-68
2022/01/15 08:18:00;;;;;;;;;44.00;33.33;;;;;3.08;92.41;102552.59;5016150;28;45441;-69
2022/01/15 08:20:25;;;;;;;;;54.67;38.00;;;;;2.85;91.85;102533.53;5015947;28;45376;-67
2022/01/15 08:22:51;;;;;;;;;36.67;32.67;;;;;2.95;93.26;102556.47;5015611;28;46390;-67
2022/01/15 08:25:18;;;;;;;;;49.00;37.67;;;;;2.94;92.92;102552.09;5015527;28;45326;-67
2022/01/15 08:27:45;;;;;;;;;51.33;38.33;;;;;2.99;92.77;102555.72;5015459;28;45260;-67
2022/01/15 08:30:11;;;;;;;;;57.33;41.67;;;;;3.04;92.76;102566.34;5016162;28;45459;-67
2022/01/15 08:32:37;;;;;;;;;40.00;33.00;;;;;3.00;93.08;102554.91;5015164;28;46223;-67
2022/01/15 08:35:05;;;;;;;;;50.67;40.00;;;;;3.03;93.55;102556.75;5015221;28;45418;-66
2022/01/15 08:37:31;;;;;;;;;41.33;35.67;;;;;3.01;92.25;102548.88;5015767;28;45391;-67
2022/01/15 08:39:56;;;;;;;;;43.00;36.00;;;;;3.05;92.75;102555.97;5015604;28;45319;-67
2022/01/15 08:42:22;;;;;;;;;44.67;38.00;;;;;2.96;93.37;102542.59;5015393;28;46523;-68
2022/01/15 08:44:47;;;;;;;;;54.67;41.00;;;;;3.00;91.67;102548.84;5015535;28;45335;-68
2022/01/15 08:47:13;;;;;;;;;46.67;39.67;;;;;2.96;91.93;102553.91;5015419;28;45301;-67
2022/01/15 08:49:39;;;;;;;;;51.33;41.67;;;;;3.08;93.28;102563.91;5015021;28;45344;-67
2022/01/15 08:52:05;;;;;;;;;54.33;45.00;;;;;3.06;93.13;102559.47;5015181;28;45326;-67
2022/01/15 08:54:31;;;;;;;;;47.67;41.33;;;;;3.13;93.17;102559.72;5015261;28;45316;-68
2022/01/15 08:56:56;;;;;;;;;47.00;38.00;;;;;3.14;93.58;102552.84;5015344;28;45305;-67
2022/01/15 08:59:23;;;;;;;;;52.00;41.33;;;;;3.18;92.62;102559.03;5015587;28;45358;-67
2022/01/15 09:01:49;;;;;;;;;46.00;38.67;;;;;3.25;92.75;102567.13;5015302;28;45440;-68
2022/01/15 09:04:14;;;;;;;;;68.33;52.33;;;;;3.14;93.17;102553.72;5014797;28;45523;-68
2022/01/15 09:06:40;;;;;;;;;54.67;41.00;;;;;3.16;92.27;102550.28;5015244;28;45337;-68
2022/01/15 09:09:06;;;;;;;;;49.67;41.00;;;;;3.26;91.81;102570.63;5015455;28;45392;-68
2022/01/15 09:11:31;;;;;;;;;60.33;43.67;;;;;3.17;90.96;102552.06;5014639;28;46434;-68
2022/01/15 09:13:57;;;;;;;;;50.33;39.67;;;;;3.25;90.70;102553.22;4997397;28;45417;-68
2022/01/15 09:16:23;;;;;;;;;59.33;43.33;;;;;3.01;91.16;102512.44;5015019;28;45358;-69
2022/01/15 09:18:50;;;;;;;;;49.00;37.67;;;;;3.21;90.74;102559.13;5015262;28;45579;-68
2022/01/15 09:21:16;;;;;;;;;47.67;38.33;;;;;3.10;88.92;102550.94;5014559;28;45704;-68
2022/01/15 09:23:41;;;;;;;;;50.33;41.00;;;;;3.07;90.79;102549.09;5014708;28;45401;-68
2022/01/15 09:26:18;;;;;;;;;60.67;44.00;;;;;3.21;91.92;102561.75;5015190;28;45422;-68
2022/01/15 09:31:26;;;;;;;;;49.67;40.33;;;;;3.28;91.09;102562.03;5014476;28;45459;-68
2022/01/15 09:33:52;;;;;;;;;55.33;42.67;;;;;3.20;90.08;102546.97;5014619;28;45421;-68
2022/01/15 09:36:17;;;;;;;;;62.67;44.33;;;;;3.36;91.05;102557.09;5016340;27;45306;-69
2022/01/15 09:38:43;;;;;;;;;50.00;41.00;;;;;3.19;89.69;102516.56;5034010;28;45378;-71
2022/01/15 09:41:08;;;;;;;;;55.33;40.33;;;;;3.36;90.32;102549.28;5034156;28;45781;-67
2022/01/15 09:43:34;;;;;;;;;61.33;45.67;;;;;3.42;90.98;102561.66;5034135;28;45471;-66
2022/01/15 09:46:00;;;;;;;;;55.00;42.67;;;;;3.51;90.78;102567.19;5033768;28;45435;-68
2022/01/15 09:48:29;;;;;;;;;60.33;46.67;;;;;3.55;89.87;102558.66;5034075;27;45563;-68
2022/01/15 09:50:54;;;;;;;;;57.67;44.33;;;;;3.23;87.88;102506.31;5033863;28;45997;-68
2022/01/15 09:53:21;;;;;;;;;58.00;42.67;;;;;3.46;88.12;102559.22;5034036;28;45381;-68
2022/01/15 09:55:47;;;;;;;;;60.67;46.33;;;;;3.53;89.36;102568.13;5034318;28;45449;-68
2022/01/15 09:58:13;;;;;;;;;63.67;44.67;;;;;3.61;89.68;102566.66;5034186;28;45495;-68
2022/01/15 10:00:39;;;;;;;;;55.00;41.33;;;;;3.67;88.28;102560.78;5034040;28;45523;-68
2022/01/15 10:03:05;;;;;;;;;62.67;44.33;;;;;3.59;86.99;102563.13;5033869;28;45395;-68
2022/01/15 10:05:30;;;;;;;;;42.33;35.67;;;;;3.61;87.92;102563.19;5050272;27;45514;-68
2022/01/15 10:08:07;;;;;;;;;57.67;44.33;;;;;3.63;86.51;102569.31;5034376;28;45569;-68
2022/01/15 10:10:34;;;;;;;;;56.00;40.67;;;;;3.51;86.39;102545.47;5033834;28;46173;-68
2022/01/15 10:13:23;;;;;;;;;60.00;46.00;;;;;3.62;86.86;102546.75;5034008;28;45354;-68
2022/01/15 10:16:08;;;;;;;;;61.00;43.00;;;;;3.65;86.06;102547.72;5034063;28;45430;-67
2022/01/15 10:18:42;;;;;;;;;57.67;44.00;;;;;3.55;87.39;102540.41;5034231;28;45300;-68
2022/01/15 10:21:21;;;;;;;;;61.00;48.00;;;;;3.63;86.64;102544.19;5032745;28;45598;-68
2022/01/15 10:23:51;;;;;;;;;52.00;40.67;;;;;3.65;86.74;102550.31;5033324;28;45355;-68
2022/01/15 10:26:27;;;;;;;;;59.67;46.33;;;;;3.67;86.60;102537.34;5034047;28;45405;-68
2022/01/15 10:29:06;;;;;;;;;54.33;41.33;;;;;3.74;85.86;102549.75;5033936;28;45481;-68
2022/01/15 10:31:44;;;;;;;;;55.33;43.67;;;;;3.80;86.23;102549.09;5043311;28;46422;-68
2022/01/15 10:34:31;;;;;;;;;50.67;43.67;;;;;3.80;85.70;102549.09;5054323;27;45258;-68
2022/01/15 10:37:08;;;;;;;;;62.67;46.33;;;;;3.81;85.43;102549.13;5056928;28;45248;-68
2022/01/15 10:39:33;;;;;;;;;60.00;45.00;;;;;3.79;85.04;102529.97;5057241;28;45391;-68
2022/01/15 10:41:58;;;;;;;;;57.33;45.67;;;;;3.86;85.51;102524.97;5056933;28;45333;-68
2022/01/15 10:44:34;;;;;;;;;65.67;49.00;;;;;3.96;85.22;102537.47;5038856;28;45380;-68
2022/01/15 10:47:13;;;;;;;;;58.33;44.00;;;;;4.04;86.18;102541.22;5056817;28;45264;-68
2022/01/15 10:49:40;;;;;;;;;50.67;43.33;;;;;4.10;85.86;102536.19;5056863;27;45388;-68
2022/01/15 10:52:19;;;;;;;;;78.67;59.00;;;;;4.11;85.73;102542.28;5056423;28;47211;-69
2022/01/15 10:55:00;;;;;;;;;62.33;48.67;;;;;3.99;85.48;102519.31;5056752;28;45345;-68
2022/01/15 10:57:28;;;;;;;;;62.33;49.67;;;;;4.14;85.52;102532.00;5056817;28;45238;-68
2022/01/15 11:00:13;;;;;;;;;58.33;43.67;;;;;4.21;85.16;102531.31;5056890;28;45378;-68
2022/01/15 11:02:44;;;;;;;;;61.00;45.33;;;;;4.23;85.08;102534.00;5056473;28;46555;-68
2022/01/15 11:05:25;;;;;;;;;64.67;49.00;;;;;4.06;85.81;102504.78;5056822;28;45284;-68
2022/01/15 11:07:53;;;;;;;;;60.67;48.00;;;;;4.35;85.61;102529.19;5056857;28;45377;-67
2022/01/15 11:10:19;;;;;;;;;57.00;44.00;;;;;4.40;84.48;102521.50;5056574;28;45561;-68
2022/01/15 11:12:44;;;;;;;;;55.67;43.67;;;;;4.43;85.47;102505.94;5056071;28;46679;-68
2022/01/15 11:15:10;;;;;;;;;56.67;45.00;;;;;4.45;84.45;102510.38;5056544;28;45185;-68
2022/01/15 11:17:36;;;;;;;;;62.00;48.00;;;;;4.53;84.24;102511.50;5056611;28;45394;-68
2022/01/15 11:20:05;;;;;;;;;57.33;45.67;;;;;4.58;84.19;102513.38;5056776;28;45408;-68
2022/01/15 11:22:33;;;;;;;;;63.67;47.00;;;;;4.52;84.45;102496.69;5056184;28;46233;-68
2022/01/15 11:24:59;;;;;;;;;69.00;49.67;;;;;4.58;82.77;102500.31;5056077;28;45372;-68
2022/01/15 11:27:29;;;;;;;;;57.00;46.00;;;;;4.49;83.67;102496.59;5056488;27;45258;-68
2022/01/15 11:29:58;;;;;;;;;62.67;47.33;;;;;4.47;83.63;102493.06;5056757;28;45425;-68
2022/01/15 11:32:27;;;;;;;;;56.33;47.67;;;;;4.47;83.55;102487.84;5055934;28;46972;-68
2022/01/15 11:35:08;;;;;;;;;70.00;52.33;;;;;4.57;84.26;102494.19;5055898;28;45454;-68
2022/01/15 11:37:42;;;;;;;;;63.67;48.33;;;;;4.64;84.89;102487.47;5056229;28;45199;-68
2022/01/15 11:40:39;;;;;;;;;68.33;52.00;;;;;4.55;84.00;102481.97;5055825;27;45297;-68